sensor_id;sensor_type;location;lat;lon;timestamp;pressure;altitude;pressure_sealevel;temperature;humidity
58698;BME280;44475;53.206;-6.106;2024-01-06T00:02:04;101356.38;;;23.21;43.91
58698;BME280;44475;53.206;-6.106;2024-01-06T00:04:31;101355.63;;;23.19;44.21
58698;BME280;44475;53.206;-6.106;2024-01-06T00:06:58;101370.19;;;23.19;44.20
58698;BME280;44475;53.206;-6.106;2024-01-06T00:09:24;101364.06;;;23.16;44.11
58698;BME280;44475;53.206;-6.106;2024-01-06T00:11:50;101366.56;;;23.19;43.92
58698;BME280;44475;53.206;-6.106;2024-01-06T00:14:17;101365.59;;;23.20;44.12
58698;BME280;44475;53.206;-6.106;2024-01-06T00:16:43;101373.03;;;23.18;44.46
58698;BME280;44475;53.206;-6.106;2024-01-06T00:19:09;101369.81;;;23.24;44.14
58698;BME280;44475;53.206;-6.106;2024-01-06T00:21:41;101378.13;;;23.11;44.38
58698;BME280;44475;53.206;-6.106;2024-01-06T00:24:24;101373.66;;;23.22;44.77
58698;BME280;44475;53.206;-6.106;2024-01-06T00:26:54;101384.97;;;23.28;44.60
58698;BME280;44475;53.206;-6.106;2024-01-06T00:29:24;101381.00;;;23.33;44.82
58698;BME280;44475;53.206;-6.106;2024-01-06T00:31:53;101381.88;;;23.33;44.75
58698;BME280;44475;53.206;-6.106;2024-01-06T00:34:24;101378.16;;;23.34;44.96
58698;BME280;44475;53.206;-6.106;2024-01-06T00:36:54;101378.28;;;23.33;44.60
58698;BME280;44475;53.206;-6.106;2024-01-06T00:39:23;101388.81;;;23.26;44.49
58698;BME280;44475;53.206;-6.106;2024-01-06T00:41:56;101394.56;;;23.34;44.53
58698;BME280;44475;53.206;-6.106;2024-01-06T00:44:26;101396.31;;;23.35;44.25
58698;BME280;44475;53.206;-6.106;2024-01-06T00:46:57;101386.09;;;23.37;44.18
58698;BME280;44475;53.206;-6.106;2024-01-06T00:57:04;101400.03;;;23.34;44.32
58698;BME280;44475;53.206;-6.106;2024-01-06T00:59:30;101402.38;;;23.39;44.04
58698;BME280;44475;53.206;-6.106;2024-01-06T01:01:57;101401.78;;;23.35;44.09
58698;BME280;44475;53.206;-6.106;2024-01-06T01:04:24;101395.44;;;23.35;44.83
58698;BME280;44475;53.206;-6.106;2024-01-06T01:06:51;101396.31;;;23.35;44.42
58698;BME280;44475;53.206;-6.106;2024-01-06T01:09:17;101404.34;;;23.37;44.24
58698;BME280;44475;53.206;-6.106;2024-01-06T01:11:44;101401.25;;;23.30;44.25
58698;BME280;44475;53.206;-6.106;2024-01-06T01:14:10;101404.00;;;23.30;44.75
58698;BME280;44475;53.206;-6.106;2024-01-06T01:16:36;101404.22;;;23.27;44.87
58698;BME280;44475;53.206;-6.106;2024-01-06T01:19:03;101405.84;;;23.18;45.13
58698;BME280;44475;53.206;-6.106;2024-01-06T01:21:30;101415.03;;;23.28;45.00
58698;BME280;44475;53.206;-6.106;2024-01-06T01:23:56;101422.50;;;23.38;44.75
58698;BME280;44475;53.206;-6.106;2024-01-06T01:26:22;101421.41;;;23.41;45.10
58698;BME280;44475;53.206;-6.106;2024-01-06T01:28:49;101420.06;;;23.46;45.03
58698;BME280;44475;53.206;-6.106;2024-01-06T01:31:15;101427.22;;;23.47;44.84
58698;BME280;44475;53.206;-6.106;2024-01-06T01:33:42;101428.97;;;23.48;44.81
58698;BME280;44475;53.206;-6.106;2024-01-06T01:36:08;101421.75;;;23.47;44.77
58698;BME280;44475;53.206;-6.106;2024-01-06T01:38:34;101426.13;;;23.50;44.63
58698;BME280;44475;53.206;-6.106;2024-01-06T01:41:01;101432.56;;;23.49;45.04
58698;BME280;44475;53.206;-6.106;2024-01-06T01:43:27;101445.78;;;23.44;44.80
58698;BME280;44475;53.206;-6.106;2024-01-06T01:45:55;101428.84;;;23.50;44.61
58698;BME280;44475;53.206;-6.106;2024-01-06T01:48:23;101434.31;;;23.50;44.96
58698;BME280;44475;53.206;-6.106;2024-01-06T01:50:50;101435.31;;;23.49;45.11
58698;BME280;44475;53.206;-6.106;2024-01-06T01:53:16;101431.22;;;23.55;45.30
58698;BME280;44475;53.206;-6.106;2024-01-06T01:55:44;101439.44;;;23.55;45.22
58698;BME280;44475;53.206;-6.106;2024-01-06T01:58:12;101452.38;;;23.53;44.71
58698;BME280;44475;53.206;-6.106;2024-01-06T02:00:40;101450.38;;;23.55;45.61
58698;BME280;44475;53.206;-6.106;2024-01-06T02:03:07;101449.88;;;23.61;45.07
58698;BME280;44475;53.206;-6.106;2024-01-06T02:05:33;101457.31;;;23.59;44.63
58698;BME280;44475;53.206;-6.106;2024-01-06T02:08:00;101452.72;;;23.59;44.29
58698;BME280;44475;53.206;-6.106;2024-01-06T02:10:26;101465.22;;;23.64;43.87
58698;BME280;44475;53.206;-6.106;2024-01-06T02:12:53;101474.03;;;23.67;44.03
58698;BME280;44475;53.206;-6.106;2024-01-06T02:15:19;101464.81;;;23.68;43.48
58698;BME280;44475;53.206;-6.106;2024-01-06T02:17:46;101480.25;;;23.69;43.77
58698;BME280;44475;53.206;-6.106;2024-01-06T02:20:13;101478.38;;;23.70;43.90
58698;BME280;44475;53.206;-6.106;2024-01-06T02:22:40;101485.72;;;23.69;43.58
58698;BME280;44475;53.206;-6.106;2024-01-06T02:25:07;101484.84;;;23.69;43.91
58698;BME280;44475;53.206;-6.106;2024-01-06T02:27:39;101480.34;;;23.68;43.86
58698;BME280;44475;53.206;-6.106;2024-01-06T02:30:06;101490.19;;;23.71;43.72
58698;BME280;44475;53.206;-6.106;2024-01-06T02:32:33;101490.31;;;23.69;43.91
58698;BME280;44475;53.206;-6.106;2024-01-06T02:35:00;101494.66;;;23.72;44.08
58698;BME280;44475;53.206;-6.106;2024-01-06T02:37:27;101493.81;;;23.71;43.73
58698;BME280;44475;53.206;-6.106;2024-01-06T02:39:53;101500.38;;;23.68;44.22
58698;BME280;44475;53.206;-6.106;2024-01-06T02:42:20;101503.88;;;23.71;44.13
58698;BME280;44475;53.206;-6.106;2024-01-06T02:44:46;101498.28;;;23.72;43.87
58698;BME280;44475;53.206;-6.106;2024-01-06T02:47:13;101509.34;;;23.71;43.84
58698;BME280;44475;53.206;-6.106;2024-01-06T02:49:39;101511.09;;;23.72;44.06
58698;BME280;44475;53.206;-6.106;2024-01-06T02:52:05;101516.56;;;23.72;43.90
58698;BME280;44475;53.206;-6.106;2024-01-06T02:54:32;101515.44;;;23.74;43.82
58698;BME280;44475;53.206;-6.106;2024-01-06T02:56:58;101525.63;;;23.72;44.37
58698;BME280;44475;53.206;-6.106;2024-01-06T02:59:24;101530.47;;;23.68;43.81
58698;BME280;44475;53.206;-6.106;2024-01-06T03:01:50;101526.16;;;23.66;44.18
58698;BME280;44475;53.206;-6.106;2024-01-06T03:04:17;101539.69;;;23.67;44.13
58698;BME280;44475;53.206;-6.106;2024-01-06T03:06:43;101530.06;;;23.62;44.06
58698;BME280;44475;53.206;-6.106;2024-01-06T03:09:10;101534.66;;;23.61;44.18
58698;BME280;44475;53.206;-6.106;2024-01-06T03:11:36;101538.28;;;23.62;44.26
58698;BME280;44475;53.206;-6.106;2024-01-06T03:14:03;101537.53;;;23.59;43.75
58698;BME280;44475;53.206;-6.106;2024-01-06T03:16:29;101543.97;;;23.58;44.33
58698;BME280;44475;53.206;-6.106;2024-01-06T03:18:55;101541.13;;;23.60;44.18
58698;BME280;44475;53.206;-6.106;2024-01-06T03:21:22;101549.47;;;23.58;44.21
58698;BME280;44475;53.206;-6.106;2024-01-06T03:23:49;101548.59;;;23.58;44.33
58698;BME280;44475;53.206;-6.106;2024-01-06T03:26:16;101541.50;;;23.55;44.82
58698;BME280;44475;53.206;-6.106;2024-01-06T03:28:43;101551.63;;;23.66;44.45
58698;BME280;44475;53.206;-6.106;2024-01-06T03:31:09;101546.16;;;23.66;44.58
58698;BME280;44475;53.206;-6.106;2024-01-06T03:33:36;101559.84;;;23.66;44.78
58698;BME280;44475;53.206;-6.106;2024-01-06T03:36:06;101555.84;;;23.71;44.37
58698;BME280;44475;53.206;-6.106;2024-01-06T03:38:33;101563.31;;;23.68;44.73
58698;BME280;44475;53.206;-6.106;2024-01-06T03:40:59;101554.09;;;23.69;44.31
58698;BME280;44475;53.206;-6.106;2024-01-06T03:43:26;101558.13;;;23.77;43.86
58698;BME280;44475;53.206;-6.106;2024-01-06T03:45:53;101554.97;;;23.70;44.09
58698;BME280;44475;53.206;-6.106;2024-01-06T03:48:22;101560.44;;;23.70;44.07
58698;BME280;44475;53.206;-6.106;2024-01-06T03:50:49;101564.19;;;23.69;44.10
58698;BME280;44475;53.206;-6.106;2024-01-06T03:53:15;101568.53;;;23.72;43.95
58698;BME280;44475;53.206;-6.106;2024-01-06T03:55:41;101571.66;;;23.67;43.79
58698;BME280;44475;53.206;-6.106;2024-01-06T03:58:08;101564.31;;;23.67;43.53
58698;BME280;44475;53.206;-6.106;2024-01-06T04:00:34;101564.31;;;23.67;43.79
58698;BME280;44475;53.206;-6.106;2024-01-06T04:03:00;101571.16;;;23.73;43.24
58698;BME280;44475;53.206;-6.106;2024-01-06T04:05:26;101568.44;;;23.73;43.50
58698;BME280;44475;53.206;-6.106;2024-01-06T04:07:53;101570.53;;;23.69;44.00
58698;BME280;44475;53.206;-6.106;2024-01-06T04:10:19;101580.59;;;23.69;43.85
58698;BME280;44475;53.206;-6.106;2024-01-06T04:12:46;101584.09;;;23.71;44.01
58698;BME280;44475;53.206;-6.106;2024-01-06T04:15:12;101582.47;;;23.68;44.07
58698;BME280;44475;53.206;-6.106;2024-01-06T04:17:38;101591.53;;;23.69;43.60
58698;BME280;44475;53.206;-6.106;2024-01-06T04:20:05;101583.47;;;23.67;44.01
58698;BME280;44475;53.206;-6.106;2024-01-06T04:22:32;101585.94;;;23.71;43.96
58698;BME280;44475;53.206;-6.106;2024-01-06T04:24:58;101591.53;;;23.69;44.13
58698;BME280;44475;53.206;-6.106;2024-01-06T04:27:25;101595.25;;;23.68;44.20
58698;BME280;44475;53.206;-6.106;2024-01-06T04:29:51;101592.78;;;23.65;44.16
58698;BME280;44475;53.206;-6.106;2024-01-06T04:32:19;101597.38;;;23.64;44.00
58698;BME280;44475;53.206;-6.106;2024-01-06T04:34:46;101594.66;;;23.64;44.06
58698;BME280;44475;53.206;-6.106;2024-01-06T04:37:12;101598.88;;;23.68;44.15
58698;BME280;44475;53.206;-6.106;2024-01-06T04:39:38;101594.53;;;23.66;44.05
58698;BME280;44475;53.206;-6.106;2024-01-06T04:42:06;101597.66;;;23.73;44.41
58698;BME280;44475;53.206;-6.106;2024-01-06T04:44:34;101608.59;;;23.73;44.24
58698;BME280;44475;53.206;-6.106;2024-01-06T04:47:00;101609.34;;;23.75;44.31
58698;BME280;44475;53.206;-6.106;2024-01-06T04:49:27;101605.84;;;23.73;43.86
58698;BME280;44475;53.206;-6.106;2024-01-06T04:51:53;101606.34;;;23.66;44.07
58698;BME280;44475;53.206;-6.106;2024-01-06T04:54:20;101601.50;;;23.70;44.16
58698;BME280;44475;53.206;-6.106;2024-01-06T04:56:48;101606.09;;;23.69;44.24
58698;BME280;44475;53.206;-6.106;2024-01-06T04:59:16;101621.53;;;23.71;44.26
58698;BME280;44475;53.206;-6.106;2024-01-06T05:01:42;101620.66;;;23.70;44.72
58698;BME280;44475;53.206;-6.106;2024-01-06T05:04:08;101623.03;;;23.75;44.28
58698;BME280;44475;53.206;-6.106;2024-01-06T05:06:35;101620.28;;;23.75;44.07
58698;BME280;44475;53.206;-6.106;2024-01-06T05:09:01;101624.50;;;23.79;44.01
58698;BME280;44475;53.206;-6.106;2024-01-06T05:11:27;101634.72;;;23.77;44.02
58698;BME280;44475;53.206;-6.106;2024-01-06T05:13:54;101637.47;;;23.77;44.10
58698;BME280;44475;53.206;-6.106;2024-01-06T05:16:21;101638.47;;;23.76;43.67
58698;BME280;44475;53.206;-6.106;2024-01-06T05:18:47;101635.84;;;23.74;43.99
58698;BME280;44475;53.206;-6.106;2024-01-06T05:21:13;101634.09;;;23.73;44.23
58698;BME280;44475;53.206;-6.106;2024-01-06T05:23:40;101635.31;;;23.69;44.37
58698;BME280;44475;53.206;-6.106;2024-01-06T05:26:06;101640.78;;;23.69;44.45
58698;BME280;44475;53.206;-6.106;2024-01-06T05:28:32;101655.00;;;23.74;44.09
58698;BME280;44475;53.206;-6.106;2024-01-06T05:30:59;101645.03;;;23.73;44.05
58698;BME280;44475;53.206;-6.106;2024-01-06T05:33:28;101647.78;;;23.73;43.89
58698;BME280;44475;53.206;-6.106;2024-01-06T05:35:57;101654.59;;;23.67;44.23
58698;BME280;44475;53.206;-6.106;2024-01-06T05:38:27;101650.63;;;23.72;43.93
58698;BME280;44475;53.206;-6.106;2024-01-06T05:40:58;101654.88;;;23.76;43.93
58698;BME280;44475;53.206;-6.106;2024-01-06T05:43:27;101651.16;;;23.77;43.68
58698;BME280;44475;53.206;-6.106;2024-01-06T05:45:55;101655.97;;;23.73;43.76
58698;BME280;44475;53.206;-6.106;2024-01-06T05:48:22;101654.22;;;23.72;43.50
58698;BME280;44475;53.206;-6.106;2024-01-06T05:50:48;101659.59;;;23.74;43.17
58698;BME280;44475;53.206;-6.106;2024-01-06T05:53:16;101660.59;;;23.73;43.45
58698;BME280;44475;53.206;-6.106;2024-01-06T05:55:44;101667.16;;;23.70;44.33
58698;BME280;44475;53.206;-6.106;2024-01-06T05:58:11;101665.41;;;23.69;44.14
58698;BME280;44475;53.206;-6.106;2024-01-06T06:00:37;101657.34;;;23.67;43.83
58698;BME280;44475;53.206;-6.106;2024-01-06T06:03:05;101666.66;;;23.65;43.78
58698;BME280;44475;53.206;-6.106;2024-01-06T06:05:32;101667.28;;;23.68;44.14
58698;BME280;44475;53.206;-6.106;2024-01-06T06:07:59;101673.75;;;23.67;44.14
58698;BME280;44475;53.206;-6.106;2024-01-06T06:10:26;101673.19;;;23.62;43.78
58698;BME280;44475;53.206;-6.106;2024-01-06T06:13:06;101671.44;;;23.61;44.12
58698;BME280;44475;53.206;-6.106;2024-01-06T06:15:33;101674.97;;;23.63;44.28
58698;BME280;44475;53.206;-6.106;2024-01-06T06:17:59;101682.19;;;23.64;44.30
58698;BME280;44475;53.206;-6.106;2024-01-06T06:20:26;101681.22;;;23.65;44.23
58698;BME280;44475;53.206;-6.106;2024-01-06T06:22:53;101692.66;;;23.71;44.51
58698;BME280;44475;53.206;-6.106;2024-01-06T06:25:20;101694.53;;;23.70;44.37
58698;BME280;44475;53.206;-6.106;2024-01-06T06:27:46;101695.28;;;23.72;44.06
58698;BME280;44475;53.206;-6.106;2024-01-06T06:30:13;101698.88;;;23.73;44.20
58698;BME280;44475;53.206;-6.106;2024-01-06T06:32:40;101706.88;;;23.76;43.75
58698;BME280;44475;53.206;-6.106;2024-01-06T06:35:07;101702.28;;;23.76;43.87
58698;BME280;44475;53.206;-6.106;2024-01-06T06:37:33;101710.38;;;23.78;43.30
58698;BME280;44475;53.206;-6.106;2024-01-06T06:40:00;101710.47;;;23.76;43.62
58698;BME280;44475;53.206;-6.106;2024-01-06T06:42:27;101705.88;;;23.77;43.53
58698;BME280;44475;53.206;-6.106;2024-01-06T06:44:54;101707.09;;;23.73;43.64
58698;BME280;44475;53.206;-6.106;2024-01-06T06:47:20;101716.06;;;23.75;43.36
58698;BME280;44475;53.206;-6.106;2024-01-06T06:49:47;101705.88;;;23.77;43.73
58698;BME280;44475;53.206;-6.106;2024-01-06T06:52:13;101709.84;;;23.73;43.70
58698;BME280;44475;53.206;-6.106;2024-01-06T06:54:39;101718.81;;;23.75;43.61
58698;BME280;44475;53.206;-6.106;2024-01-06T06:57:05;101723.03;;;23.79;43.40
58698;BME280;44475;53.206;-6.106;2024-01-06T06:59:32;101725.53;;;23.82;43.36
58698;BME280;44475;53.206;-6.106;2024-01-06T07:01:58;101738.72;;;23.77;43.72
58698;BME280;44475;53.206;-6.106;2024-01-06T07:04:24;101745.19;;;23.76;43.63
58698;BME280;44475;53.206;-6.106;2024-01-06T07:06:52;101745.28;;;23.74;43.61
58698;BME280;44475;53.206;-6.106;2024-01-06T07:09:20;101756.22;;;23.74;43.49
58698;BME280;44475;53.206;-6.106;2024-01-06T07:11:49;101756.13;;;23.76;43.10
58698;BME280;44475;53.206;-6.106;2024-01-06T07:14:17;101757.09;;;23.75;43.60
58698;BME280;44475;53.206;-6.106;2024-01-06T07:16:44;101764.06;;;23.79;43.57
58698;BME280;44475;53.206;-6.106;2024-01-06T07:19:11;101773.03;;;23.81;43.16
58698;BME280;44475;53.206;-6.106;2024-01-06T07:21:38;101778.78;;;23.78;43.53
58698;BME280;44475;53.206;-6.106;2024-01-06T07:24:04;101783.47;;;23.76;43.41
58698;BME280;44475;53.206;-6.106;2024-01-06T07:26:30;101783.47;;;23.76;43.40
58698;BME280;44475;53.206;-6.106;2024-01-06T07:28:57;101799.66;;;23.79;43.53
58698;BME280;44475;53.206;-6.106;2024-01-06T07:31:24;101800.13;;;23.73;43.20
58698;BME280;44475;53.206;-6.106;2024-01-06T07:33:50;101802.75;;;23.74;43.13
58698;BME280;44475;53.206;-6.106;2024-01-06T07:36:16;101800.88;;;23.75;43.04
58698;BME280;44475;53.206;-6.106;2024-01-06T07:38:43;101800.66;;;23.78;43.13
58698;BME280;44475;53.206;-6.106;2024-01-06T07:41:12;101808.50;;;23.83;42.90
58698;BME280;44475;53.206;-6.106;2024-01-06T07:43:38;101804.91;;;23.82;42.95
58698;BME280;44475;53.206;-6.106;2024-01-06T07:46:04;101803.25;;;23.79;43.25
58698;BME280;44475;53.206;-6.106;2024-01-06T07:48:33;101807.84;;;23.79;43.00
58698;BME280;44475;53.206;-6.106;2024-01-06T07:50:59;101813.34;;;23.79;43.13
58698;BME280;44475;53.206;-6.106;2024-01-06T07:53:25;101819.69;;;23.79;43.21
58698;BME280;44475;53.206;-6.106;2024-01-06T07:55:51;101826.03;;;23.80;43.02
58698;BME280;44475;53.206;-6.106;2024-01-06T07:58:18;101819.81;;;23.78;43.10
58698;BME280;44475;53.206;-6.106;2024-01-06T08:00:44;101825.50;;;23.75;43.08
58698;BME280;44475;53.206;-6.106;2024-01-06T08:03:11;101828.03;;;23.78;43.11
58698;BME280;44475;53.206;-6.106;2024-01-06T08:05:38;101826.63;;;23.72;42.92
58698;BME280;44475;53.206;-6.106;2024-01-06T08:08:05;101827.50;;;23.73;43.22
58698;BME280;44475;53.206;-6.106;2024-01-06T08:10:31;101833.63;;;23.76;43.31
58698;BME280;44475;53.206;-6.106;2024-01-06T08:12:58;101834.50;;;23.77;43.26
58698;BME280;44475;53.206;-6.106;2024-01-06T08:15:26;101841.56;;;23.79;42.97
58698;BME280;44475;53.206;-6.106;2024-01-06T08:17:52;101844.31;;;23.79;43.00
58698;BME280;44475;53.206;-6.106;2024-01-06T08:20:18;101844.31;;;23.79;42.94
58698;BME280;44475;53.206;-6.106;2024-01-06T08:22:45;101856.00;;;23.82;42.92
58698;BME280;44475;53.206;-6.106;2024-01-06T08:25:13;101850.75;;;23.78;42.93
58698;BME280;44475;53.206;-6.106;2024-01-06T08:27:40;101857.13;;;23.79;42.76
58698;BME280;44475;53.206;-6.106;2024-01-06T08:30:07;101857.13;;;23.79;42.89
58698;BME280;44475;53.206;-6.106;2024-01-06T08:32:34;101865.47;;;23.77;43.08
58698;BME280;44475;53.206;-6.106;2024-01-06T08:35:00;101877.16;;;23.79;42.85
58698;BME280;44475;53.206;-6.106;2024-01-06T08:37:26;101884.47;;;23.79;42.95
58698;BME280;44475;53.206;-6.106;2024-01-06T08:39:53;101890.97;;;23.78;43.42
58698;BME280;44475;53.206;-6.106;2024-01-06T08:42:19;101898.31;;;23.77;43.24
58698;BME280;44475;53.206;-6.106;2024-01-06T08:44:46;101903.78;;;23.77;43.33
58698;BME280;44475;53.206;-6.106;2024-01-06T08:47:13;101902.66;;;23.80;43.18
58698;BME280;44475;53.206;-6.106;2024-01-06T08:49:39;101910.63;;;23.83;43.01
58698;BME280;44475;53.206;-6.106;2024-01-06T08:52:06;101913.59;;;23.80;42.78
58698;BME280;44475;53.206;-6.106;2024-01-06T08:54:32;101920.94;;;23.79;42.96
58698;BME280;44475;53.206;-6.106;2024-01-06T08:56:59;101922.06;;;23.77;42.91
58698;BME280;44475;53.206;-6.106;2024-01-06T08:59:25;101921.69;;;23.82;42.87
58698;BME280;44475;53.206;-6.106;2024-01-06T09:01:51;101929.03;;;23.81;42.72
58698;BME280;44475;53.206;-6.106;2024-01-06T09:04:18;101930.00;;;23.80;42.88
58698;BME280;44475;53.206;-6.106;2024-01-06T09:06:46;101934.63;;;23.79;42.96
58698;BME280;44475;53.206;-6.106;2024-01-06T09:09:13;101934.75;;;23.78;42.70
58698;BME280;44475;53.206;-6.106;2024-01-06T09:11:40;101945.56;;;23.79;42.76
58698;BME280;44475;53.206;-6.106;2024-01-06T09:14:07;101941.06;;;23.78;42.54
58698;BME280;44475;53.206;-6.106;2024-01-06T09:16:34;101943.59;;;23.82;42.32
58698;BME280;44475;53.206;-6.106;2024-01-06T09:19:00;101955.41;;;23.82;42.55
58698;BME280;44475;53.206;-6.106;2024-01-06T09:21:26;101959.25;;;23.79;42.94
58698;BME280;44475;53.206;-6.106;2024-01-06T09:23:52;101958.16;;;23.82;42.24
58698;BME280;44475;53.206;-6.106;2024-01-06T09:26:19;101970.19;;;23.79;42.81
58698;BME280;44475;53.206;-6.106;2024-01-06T09:28:45;101966.56;;;23.79;42.19
58698;BME280;44475;53.206;-6.106;2024-01-06T09:31:12;101972.28;;;23.76;42.49
58698;BME280;44475;53.206;-6.106;2024-01-06T09:33:39;101980.41;;;23.77;42.46
58698;BME280;44475;53.206;-6.106;2024-01-06T09:36:06;101985.09;;;23.75;42.30
58698;BME280;44475;53.206;-6.106;2024-01-06T09:38:32;101987.06;;;23.73;42.56
58698;BME280;44475;53.206;-6.106;2024-01-06T09:40:59;101991.56;;;23.74;42.63
58698;BME280;44475;53.206;-6.106;2024-01-06T09:43:25;101992.66;;;23.72;42.63
58698;BME280;44475;53.206;-6.106;2024-01-06T09:46:06;101981.50;;;23.75;42.75
58698;BME280;44475;53.206;-6.106;2024-01-06T09:48:40;101994.41;;;23.73;42.80
58698;BME280;44475;53.206;-6.106;2024-01-06T09:51:12;101985.41;;;23.71;42.37
58698;BME280;44475;53.206;-6.106;2024-01-06T09:53:59;101993.88;;;23.67;42.37
58698;BME280;44475;53.206;-6.106;2024-01-06T09:56:27;101996.13;;;23.61;42.05
58698;BME280;44475;53.206;-6.106;2024-01-06T09:58:57;101996.69;;;23.53;43.37
58698;BME280;44475;53.206;-6.106;2024-01-06T10:01:25;101999.06;;;23.57;44.14
58698;BME280;44475;53.206;-6.106;2024-01-06T10:03:51;102008.09;;;23.46;44.15
58698;BME280;44475;53.206;-6.106;2024-01-06T10:06:18;102005.91;;;23.65;43.72
58698;BME280;44475;53.206;-6.106;2024-01-06T10:08:48;102016.28;;;23.73;43.36
58698;BME280;44475;53.206;-6.106;2024-01-06T10:11:15;102016.97;;;23.76;43.77
58698;BME280;44475;53.206;-6.106;2024-01-06T10:13:41;102016.50;;;23.69;43.77
58698;BME280;44475;53.206;-6.106;2024-01-06T10:16:07;102022.19;;;23.79;43.21
58698;BME280;44475;53.206;-6.106;2024-01-06T10:18:34;102014.97;;;23.78;43.38
58698;BME280;44475;53.206;-6.106;2024-01-06T10:21:05;102019.34;;;23.81;43.08
58698;BME280;44475;53.206;-6.106;2024-01-06T10:23:33;102025.69;;;23.82;43.03
58698;BME280;44475;53.206;-6.106;2024-01-06T10:26:00;102023.72;;;23.84;43.08
58698;BME280;44475;53.206;-6.106;2024-01-06T10:28:26;102018.25;;;23.84;42.92
58698;BME280;44475;53.206;-6.106;2024-01-06T10:30:53;102016.72;;;23.79;43.10
58698;BME280;44475;53.206;-6.106;2024-01-06T10:33:23;102017.47;;;23.82;42.75
58698;BME280;44475;53.206;-6.106;2024-01-06T10:35:50;102036.75;;;23.80;42.62
58698;BME280;44475;53.206;-6.106;2024-01-06T10:38:18;102037.50;;;23.82;42.75
58698;BME280;44475;53.206;-6.106;2024-01-06T10:41:11;102036.75;;;23.80;42.75
58698;BME280;44475;53.206;-6.106;2024-01-06T10:43:38;102042.00;;;23.83;42.38
58698;BME280;44475;53.206;-6.106;2024-01-06T10:46:08;102034.88;;;23.81;42.63
58698;BME280;44475;53.206;-6.106;2024-01-06T10:48:38;102044.75;;;23.83;42.71
58698;BME280;44475;53.206;-6.106;2024-01-06T10:51:09;102053.72;;;23.85;42.82
58698;BME280;44475;53.206;-6.106;2024-01-06T10:53:36;102051.09;;;23.84;42.66
58698;BME280;44475;53.206;-6.106;2024-01-06T10:56:04;102047.47;;;23.83;42.54
58698;BME280;44475;53.206;-6.106;2024-01-06T10:58:34;102048.34;;;23.84;42.42
58698;BME280;44475;53.206;-6.106;2024-01-06T11:01:04;102045.50;;;23.85;42.48
58698;BME280;44475;53.206;-6.106;2024-01-06T11:03:31;102054.34;;;23.89;42.36
58698;BME280;44475;53.206;-6.106;2024-01-06T11:05:59;102055.03;;;23.93;42.38
58698;BME280;44475;53.206;-6.106;2024-01-06T11:08:26;102054.25;;;23.91;42.34
58698;BME280;44475;53.206;-6.106;2024-01-06T11:10:54;102061.81;;;23.87;42.17
58698;BME280;44475;53.206;-6.106;2024-01-06T11:13:24;102062.59;;;23.76;42.34
58698;BME280;44475;53.206;-6.106;2024-01-06T11:15:52;102066.63;;;23.83;42.23
58698;BME280;44475;53.206;-6.106;2024-01-06T11:18:32;102055.47;;;23.86;42.24
58698;BME280;44475;53.206;-6.106;2024-01-06T11:21:18;102061.94;;;23.85;42.10
58698;BME280;44475;53.206;-6.106;2024-01-06T11:26:33;102053.72;;;23.85;42.11
58698;BME280;44475;53.206;-6.106;2024-01-06T11:29:00;102061.94;;;23.85;42.36
58698;BME280;44475;53.206;-6.106;2024-01-06T11:31:33;102060.84;;;23.88;42.11
58698;BME280;44475;53.206;-6.106;2024-01-06T11:34:19;102062.16;;;23.82;42.26
58698;BME280;44475;53.206;-6.106;2024-01-06T11:36:49;102055.78;;;23.82;41.89
58698;BME280;44475;53.206;-6.106;2024-01-06T13:40:53;102088.28;;;23.60;42.03
58698;BME280;44475;53.206;-6.106;2024-01-06T13:46:45;102088.63;;;23.55;42.16
58698;BME280;44475;53.206;-6.106;2024-01-06T13:49:13;102081.03;;;23.59;41.95
58698;BME280;44475;53.206;-6.106;2024-01-06T13:51:44;102086.97;;;23.53;42.11
58698;BME280;44475;53.206;-6.106;2024-01-06T13:54:14;102090.78;;;23.50;42.06
58698;BME280;44475;53.206;-6.106;2024-01-06T13:56:42;102098.88;;;23.52;41.88
58698;BME280;44475;53.206;-6.106;2024-01-06T13:59:09;102090.47;;;23.55;42.14
58698;BME280;44475;53.206;-6.106;2024-01-06T14:01:37;102095.69;;;23.58;42.15
58698;BME280;44475;53.206;-6.106;2024-01-06T14:04:05;102097.47;;;23.59;42.05
58698;BME280;44475;53.206;-6.106;2024-01-06T14:06:36;102105.66;;;23.59;41.80
58698;BME280;44475;53.206;-6.106;2024-01-06T14:09:08;102102.06;;;23.58;41.89
58698;BME280;44475;53.206;-6.106;2024-01-06T14:11:35;102104.78;;;23.58;41.98
58698;BME280;44475;53.206;-6.106;2024-01-06T14:14:02;102100.19;;;23.59;41.69
58698;BME280;44475;53.206;-6.106;2024-01-06T14:16:29;102113.13;;;23.57;41.84
58698;BME280;44475;53.206;-6.106;2024-01-06T14:18:56;102108.19;;;23.62;41.85
58698;BME280;44475;53.206;-6.106;2024-01-06T14:21:24;102115.88;;;23.57;42.02
58698;BME280;44475;53.206;-6.106;2024-01-06T14:23:51;102106.66;;;23.58;41.74
58698;BME280;44475;53.206;-6.106;2024-01-06T14:26:18;102121.34;;;23.57;41.77
58698;BME280;44475;53.206;-6.106;2024-01-06T14:28:49;102126.69;;;23.58;41.95
58698;BME280;44475;53.206;-6.106;2024-01-06T14:31:16;102124.81;;;23.59;41.80
58698;BME280;44475;53.206;-6.106;2024-01-06T14:33:43;102131.06;;;23.61;41.84
58698;BME280;44475;53.206;-6.106;2024-01-06T14:36:09;102131.94;;;23.62;41.84
58698;BME280;44475;53.206;-6.106;2024-01-06T14:38:36;102139.72;;;23.55;42.01
58698;BME280;44475;53.206;-6.106;2024-01-06T14:41:03;102144.06;;;23.57;41.70
58698;BME280;44475;53.206;-6.106;2024-01-06T14:43:30;102146.16;;;23.54;41.88
58698;BME280;44475;53.206;-6.106;2024-01-06T14:45:57;102152.50;;;23.54;41.82
58698;BME280;44475;53.206;-6.106;2024-01-06T14:48:23;102149.53;;;23.57;41.77
58698;BME280;44475;53.206;-6.106;2024-01-06T14:50:51;102144.19;;;23.56;42.11
58698;BME280;44475;53.206;-6.106;2024-01-06T14:53:17;102143.63;;;23.51;41.89
58698;BME280;44475;53.206;-6.106;2024-01-06T14:55:44;102155.56;;;23.49;42.08
58698;BME280;44475;53.206;-6.106;2024-01-06T14:58:11;102158.75;;;23.56;41.88